Beringen, Belgium
Current Conditions -  °F | °C
As of 12:25 PM on Friday 28 Nov 2014 (Local Time) from EBDT Reporting Station
Broken Clouds Broken Clouds  
Wind Chill: 46°   Ceiling: 8000
Heat Index: 48°   Visibility: 6mi
Dew Point: 43°   Wind: 6mph
Humidity: 82%   Direction: 80°E
Pressure: 29.71"   Gusts: NA
Location:  51.05°N, 5.23°E
Report Text: EBDT 281125Z 08005KT 9999 BKN080 09/06 Q1006 BLU BLU
Loading
Personal Weather Stations






























Interactive Weather Map New forecast layout! Learn more

10-Day Weather Forecast

Advertisements
Track Severe Weather on mobile